sensor_id;sensor_type;location;lat;lon;timestamp;pressure;altitude;pressure_sealevel;temperature;humidity
75359;BME280;64046;51.978;5.934;2023-05-07T00:01:51;101526.03;;;20.25;100.00
75359;BME280;64046;51.978;5.934;2023-05-07T00:04:25;101531.28;;;20.37;100.00
75359;BME280;64046;51.978;5.934;2023-05-07T00:06:54;101537.75;;;20.22;100.00
75359;BME280;64046;51.978;5.934;2023-05-07T00:09:31;101531.38;;;20.36;100.00
75359;BME280;64046;51.978;5.934;2023-05-07T00:12:05;101529.81;;;20.33;100.00
75359;BME280;64046;51.978;5.934;2023-05-07T00:14:35;101525.34;;;20.10;100.00
75359;BME280;64046;51.978;5.934;2023-05-07T00:17:06;101529.81;;;20.09;100.00
75359;BME280;64046;51.978;5.934;2023-05-07T00:19:43;101540.69;;;20.30;100.00
75359;BME280;64046;51.978;5.934;2023-05-07T00:22:19;101538.03;;;20.30;100.00
75359;BME280;64046;51.978;5.934;2023-05-07T00:24:49;101532.41;;;20.22;100.00
75359;BME280;64046;51.978;5.934;2023-05-07T00:27:19;101539.38;;;20.12;100.00
75359;BME280;64046;51.978;5.934;2023-05-07T00:30:06;101537.91;;;20.32;100.00
75359;BME280;64046;51.978;5.934;2023-05-07T00:32:37;101535.50;;;20.16;100.00
75359;BME280;64046;51.978;5.934;2023-05-07T00:35:14;101526.03;;;20.25;100.00
75359;BME280;64046;51.978;5.934;2023-05-07T00:37:46;101524.16;;;20.14;100.00
75359;BME280;64046;51.978;5.934;2023-05-07T00:40:21;101524.22;;;20.25;100.00
75359;BME280;64046;51.978;5.934;2023-05-07T00:42:53;101518.66;;;20.28;100.00
75359;BME280;64046;51.978;5.934;2023-05-07T00:45:28;101518.03;;;20.25;100.00
75359;BME280;64046;51.978;5.934;2023-05-07T00:48:07;101522.28;;;20.27;100.00
75359;BME280;64046;51.978;5.934;2023-05-07T00:50:43;101519.94;;;20.22;100.00
75359;BME280;64046;51.978;5.934;2023-05-07T00:53:14;101513.44;;;20.02;100.00
75359;BME280;64046;51.978;5.934;2023-05-07T00:55:50;101511.25;;;20.20;100.00
75359;BME280;64046;51.978;5.934;2023-05-07T00:58:25;101509.88;;;20.15;100.00
75359;BME280;64046;51.978;5.934;2023-05-07T01:00:58;101512.19;;;19.95;100.00
75359;BME280;64046;51.978;5.934;2023-05-07T01:03:29;101505.16;;;19.94;100.00
75359;BME280;64046;51.978;5.934;2023-05-07T01:06:04;101506.72;;;20.10;100.00
75359;BME280;64046;51.978;5.934;2023-05-07T01:08:37;101511.84;;;20.00;100.00
75359;BME280;64046;51.978;5.934;2023-05-07T01:11:10;101506.81;;;20.08;100.00
75359;BME280;64046;51.978;5.934;2023-05-07T01:13:41;101502.31;;;19.97;100.00
75359;BME280;64046;51.978;5.934;2023-05-07T01:16:20;101502.44;;;20.07;100.00
75359;BME280;64046;51.978;5.934;2023-05-07T01:18:55;101495.28;;;19.96;100.00
75359;BME280;64046;51.978;5.934;2023-05-07T01:21:34;101496.34;;;19.94;100.00
75359;BME280;64046;51.978;5.934;2023-05-07T01:24:22;101500.84;;;19.93;100.00
75359;BME280;64046;51.978;5.934;2023-05-07T01:27:09;101497.03;;;19.71;100.00
75359;BME280;64046;51.978;5.934;2023-05-07T01:29:42;101497.88;;;19.72;100.00
75359;BME280;64046;51.978;5.934;2023-05-07T01:32:17;101491.38;;;19.89;100.00
75359;BME280;64046;51.978;5.934;2023-05-07T01:34:57;101493.84;;;19.79;100.00
75359;BME280;64046;51.978;5.934;2023-05-07T01:37:32;101495.94;;;19.87;100.00
75359;BME280;64046;51.978;5.934;2023-05-07T01:40:12;101488.72;;;19.89;100.00
75359;BME280;64046;51.978;5.934;2023-05-07T01:42:45;101490.38;;;19.90;100.00
75359;BME280;64046;51.978;5.934;2023-05-07T01:48:03;101492.22;;;19.90;100.00
75359;BME280;64046;51.978;5.934;2023-05-07T01:50:36;101490.50;;;19.88;100.00
75359;BME280;64046;51.978;5.934;2023-05-07T01:53:06;101484.56;;;19.85;100.00
75359;BME280;64046;51.978;5.934;2023-05-07T01:55:39;101487.66;;;19.92;100.00
75359;BME280;64046;51.978;5.934;2023-05-07T01:58:12;101498.47;;;19.88;100.00
75359;BME280;64046;51.978;5.934;2023-05-07T02:00:44;101505.75;;;19.86;100.00
75359;BME280;64046;51.978;5.934;2023-05-07T02:03:21;101500.59;;;19.96;100.00
75359;BME280;64046;51.978;5.934;2023-05-07T02:06:02;101505.75;;;19.86;100.00
75359;BME280;64046;51.978;5.934;2023-05-07T02:08:35;101501.25;;;19.74;100.00
75359;BME280;64046;51.978;5.934;2023-05-07T02:11:17;101503.81;;;19.88;100.00
75359;BME280;64046;51.978;5.934;2023-05-07T02:13:47;101506.09;;;19.82;100.00
75359;BME280;64046;51.978;5.934;2023-05-07T02:16:16;101501.59;;;19.69;100.00
75359;BME280;64046;51.978;5.934;2023-05-07T02:18:52;101497.66;;;19.88;100.00
75359;BME280;64046;51.978;5.934;2023-05-07T02:21:25;101498.84;;;19.71;100.00
75359;BME280;64046;51.978;5.934;2023-05-07T02:24:03;101503.75;;;19.64;100.00
75359;BME280;64046;51.978;5.934;2023-05-07T02:26:42;101495.63;;;19.92;100.00
75359;BME280;64046;51.978;5.934;2023-05-07T02:29:15;101504.03;;;19.85;100.00
75359;BME280;64046;51.978;5.934;2023-05-07T02:31:53;101494.63;;;19.93;100.00
75359;BME280;64046;51.978;5.934;2023-05-07T02:34:35;101490.38;;;19.90;100.00
75359;BME280;64046;51.978;5.934;2023-05-07T02:37:04;101489.00;;;19.60;100.00
75359;BME280;64046;51.978;5.934;2023-05-07T02:39:35;101483.25;;;19.53;100.00
75359;BME280;64046;51.978;5.934;2023-05-07T02:42:11;101487.34;;;19.70;100.00
75359;BME280;64046;51.978;5.934;2023-05-07T02:44:41;101484.09;;;19.54;100.00
75359;BME280;64046;51.978;5.934;2023-05-07T02:47:31;101480.56;;;19.79;100.00
75359;BME280;64046;51.978;5.934;2023-05-07T02:50:09;101496.59;;;19.78;100.00
75359;BME280;64046;51.978;5.934;2023-05-07T02:52:50;101497.13;;;19.83;100.00
75359;BME280;64046;51.978;5.934;2023-05-07T02:55:19;101505.66;;;19.62;100.00
75359;BME280;64046;51.978;5.934;2023-05-07T02:57:52;101502.84;;;19.77;100.00
75359;BME280;64046;51.978;5.934;2023-05-07T03:00:26;101500.78;;;19.69;100.00
75359;BME280;64046;51.978;5.934;2023-05-07T03:03:22;101499.16;;;19.79;100.00
75359;BME280;64046;51.978;5.934;2023-05-07T03:05:57;101505.66;;;19.62;100.00
75359;BME280;64046;51.978;5.934;2023-05-07T03:08:28;101501.16;;;19.76;100.00
75359;BME280;64046;51.978;5.934;2023-05-07T03:10:59;101500.78;;;19.69;100.00
75359;BME280;64046;51.978;5.934;2023-05-07T03:13:35;101509.00;;;19.90;100.00
75359;BME280;64046;51.978;5.934;2023-05-07T03:16:09;101501.81;;;19.79;100.00
75359;BME280;64046;51.978;5.934;2023-05-07T03:18:39;101493.84;;;19.66;100.00
75359;BME280;64046;51.978;5.934;2023-05-07T03:21:12;101501.00;;;19.66;100.00
75359;BME280;64046;51.978;5.934;2023-05-07T03:23:45;101500.53;;;19.72;100.00
75359;BME280;64046;51.978;5.934;2023-05-07T03:26:15;101491.56;;;19.49;100.00
75359;BME280;64046;51.978;5.934;2023-05-07T03:28:48;101492.59;;;19.59;100.00
75359;BME280;64046;51.978;5.934;2023-05-07T03:31:20;101494.94;;;19.51;100.00
75359;BME280;64046;51.978;5.934;2023-05-07T03:33:54;101493.88;;;19.53;100.00
75359;BME280;64046;51.978;5.934;2023-05-07T03:36:38;101496.84;;;19.62;100.00
75359;BME280;64046;51.978;5.934;2023-05-07T03:39:12;101487.31;;;19.46;100.00
75359;BME280;64046;51.978;5.934;2023-05-07T03:41:57;101488.78;;;19.50;100.00
75359;BME280;64046;51.978;5.934;2023-05-07T03:44:34;101486.75;;;19.54;100.00
75359;BME280;64046;51.978;5.934;2023-05-07T03:47:05;101492.28;;;19.51;100.00
75359;BME280;64046;51.978;5.934;2023-05-07T03:49:43;101494.00;;;19.52;100.00
75359;BME280;64046;51.978;5.934;2023-05-07T03:52:14;101504.66;;;19.26;100.00
75359;BME280;64046;51.978;5.934;2023-05-07T03:54:55;101496.47;;;19.42;100.00
75359;BME280;64046;51.978;5.934;2023-05-07T03:57:27;101503.81;;;19.26;100.00
75359;BME280;64046;51.978;5.934;2023-05-07T04:00:08;101498.16;;;19.43;100.00
75359;BME280;64046;51.978;5.934;2023-05-07T04:02:55;101499.75;;;19.46;100.00
75359;BME280;64046;51.978;5.934;2023-05-07T04:05:28;101510.06;;;19.38;100.00
75359;BME280;64046;51.978;5.934;2023-05-07T04:08:02;101514.53;;;19.24;100.00
75359;BME280;64046;51.978;5.934;2023-05-07T04:10:41;101516.03;;;19.28;100.00
75359;BME280;64046;51.978;5.934;2023-05-07T04:13:14;101521.78;;;19.09;100.00
75359;BME280;64046;51.978;5.934;2023-05-07T04:15:48;101514.53;;;19.24;100.00
75359;BME280;64046;51.978;5.934;2023-05-07T04:18:21;101521.03;;;19.20;100.00
75359;BME280;64046;51.978;5.934;2023-05-07T04:20:57;101522.53;;;19.11;100.00
75359;BME280;64046;51.978;5.934;2023-05-07T04:23:36;101530.69;;;19.08;100.00
75359;BME280;64046;51.978;5.934;2023-05-07T04:26:12;101522.84;;;19.19;100.00
75359;BME280;64046;51.978;5.934;2023-05-07T04:28:51;101527.19;;;19.33;100.00
75359;BME280;64046;51.978;5.934;2023-05-07T04:31:29;101528.78;;;19.36;100.00
75359;BME280;64046;51.978;5.934;2023-05-07T04:34:02;101524.53;;;19.33;100.00
75359;BME280;64046;51.978;5.934;2023-05-07T04:36:35;101527.09;;;19.35;100.00
75359;BME280;64046;51.978;5.934;2023-05-07T04:39:14;101528.59;;;19.26;100.00
75359;BME280;64046;51.978;5.934;2023-05-07T04:41:53;101524.75;;;19.43;100.00
75359;BME280;64046;51.978;5.934;2023-05-07T04:44:24;101526.53;;;19.30;100.00
75359;BME280;64046;51.978;5.934;2023-05-07T04:47:02;101524.22;;;19.38;100.00
75359;BME280;64046;51.978;5.934;2023-05-07T04:49:39;101526.66;;;19.41;100.00
75359;BME280;64046;51.978;5.934;2023-05-07T04:52:13;101532.41;;;19.35;100.00
75359;BME280;64046;51.978;5.934;2023-05-07T04:54:50;101523.47;;;19.36;100.00
75359;BME280;64046;51.978;5.934;2023-05-07T04:57:20;101525.38;;;19.21;100.00
75359;BME280;64046;51.978;5.934;2023-05-07T05:00:02;101533.78;;;19.41;100.00
75359;BME280;64046;51.978;5.934;2023-05-07T05:02:40;101539.41;;;19.36;100.00
75359;BME280;64046;51.978;5.934;2023-05-07T05:05:29;101537.09;;;19.31;100.00
75359;BME280;64046;51.978;5.934;2023-05-07T05:07:59;101538.78;;;19.07;100.00
75359;BME280;64046;51.978;5.934;2023-05-07T05:10:35;101539.94;;;19.28;100.00
75359;BME280;64046;51.978;5.934;2023-05-07T05:13:09;101545.16;;;19.30;100.00
75359;BME280;64046;51.978;5.934;2023-05-07T05:15:43;101547.06;;;19.28;100.00
75359;BME280;64046;51.978;5.934;2023-05-07T05:18:16;101553.66;;;19.35;100.00
75359;BME280;64046;51.978;5.934;2023-05-07T05:20:48;101549.94;;;19.25;100.00
75359;BME280;64046;51.978;5.934;2023-05-07T05:23:17;101547.63;;;19.07;100.00
75359;BME280;64046;51.978;5.934;2023-05-07T05:25:55;101541.53;;;19.31;100.00
75359;BME280;64046;51.978;5.934;2023-05-07T05:28:29;101548.56;;;19.32;100.00
75359;BME280;64046;51.978;5.934;2023-05-07T05:31:00;101545.69;;;19.22;100.00
75359;BME280;64046;51.978;5.934;2023-05-07T05:33:36;101553.56;;;19.36;100.00
75359;BME280;64046;51.978;5.934;2023-05-07T05:36:09;101554.94;;;19.29;100.00
75359;BME280;64046;51.978;5.934;2023-05-07T05:38:40;101548.78;;;19.16;100.00
75359;BME280;64046;51.978;5.934;2023-05-07T05:41:16;101557.16;;;19.35;100.00
75359;BME280;64046;51.978;5.934;2023-05-07T05:43:48;101567.69;;;19.24;100.00
75359;BME280;64046;51.978;5.934;2023-05-07T05:46:19;101568.88;;;19.20;100.00
75359;BME280;64046;51.978;5.934;2023-05-07T05:48:56;101569.50;;;19.36;100.00
75359;BME280;64046;51.978;5.934;2023-05-07T05:51:29;101572.16;;;19.24;100.00
75359;BME280;64046;51.978;5.934;2023-05-07T05:54:09;101574.91;;;19.48;100.00
75359;BME280;64046;51.978;5.934;2023-05-07T05:56:39;101571.94;;;19.27;100.00
75359;BME280;64046;51.978;5.934;2023-05-07T05:59:10;101583.84;;;19.34;100.00
75359;BME280;64046;51.978;5.934;2023-05-07T06:01:40;101577.91;;;19.30;100.00
75359;BME280;64046;51.978;5.934;2023-05-07T06:04:14;101576.97;;;19.44;100.00
75359;BME280;64046;51.978;5.934;2023-05-07T06:06:48;101580.78;;;19.27;100.00
75359;BME280;64046;51.978;5.934;2023-05-07T06:09:21;101579.69;;;19.43;100.00
75359;BME280;64046;51.978;5.934;2023-05-07T06:11:56;101578.75;;;19.44;100.00
75359;BME280;64046;51.978;5.934;2023-05-07T06:14:34;101581.06;;;19.48;100.00
75359;BME280;64046;51.978;5.934;2023-05-07T06:17:06;101585.00;;;19.56;100.00
75359;BME280;64046;51.978;5.934;2023-05-07T06:19:41;101579.69;;;19.56;100.00
75359;BME280;64046;51.978;5.934;2023-05-07T06:22:15;101590.22;;;19.57;100.00
75359;BME280;64046;51.978;5.934;2023-05-07T06:24:55;101580.88;;;19.64;100.00
75359;BME280;64046;51.978;5.934;2023-05-07T06:27:30;101585.53;;;19.61;100.00
75359;BME280;64046;51.978;5.934;2023-05-07T06:30:04;101585.97;;;19.67;100.00
75359;BME280;64046;51.978;5.934;2023-05-07T06:32:36;101587.75;;;19.67;100.00
75359;BME280;64046;51.978;5.934;2023-05-07T06:35:13;101581.69;;;19.78;100.00
75359;BME280;64046;51.978;5.934;2023-05-07T06:37:42;101588.84;;;19.64;100.00
75359;BME280;64046;51.978;5.934;2023-05-07T06:40:22;101592.25;;;19.79;100.00
75359;BME280;64046;51.978;5.934;2023-05-07T06:42:53;101594.88;;;19.66;100.00
75359;BME280;64046;51.978;5.934;2023-05-07T06:45:32;101600.84;;;19.70;100.00
75359;BME280;64046;51.978;5.934;2023-05-07T06:48:11;101597.34;;;19.82;100.00
75359;BME280;64046;51.978;5.934;2023-05-07T06:50:57;101588.06;;;19.88;100.00
75359;BME280;64046;51.978;5.934;2023-05-07T06:53:29;101587.13;;;19.89;100.00
75359;BME280;64046;51.978;5.934;2023-05-07T06:56:05;101599.53;;;19.76;100.00
75359;BME280;64046;51.978;5.934;2023-05-07T06:58:42;101608.53;;;19.87;100.00
75359;BME280;64046;51.978;5.934;2023-05-07T07:01:21;101590.63;;;19.90;100.00
75359;BME280;64046;51.978;5.934;2023-05-07T07:03:52;101599.06;;;19.83;100.00
75359;BME280;64046;51.978;5.934;2023-05-07T07:06:25;101600.75;;;19.84;100.00
75359;BME280;64046;51.978;5.934;2023-05-07T07:09:06;101604.13;;;19.74;100.00
75359;BME280;64046;51.978;5.934;2023-05-07T07:11:35;101598.50;;;19.65;100.00
75359;BME280;64046;51.978;5.934;2023-05-07T07:14:09;101595.31;;;19.73;100.00
75359;BME280;64046;51.978;5.934;2023-05-07T07:16:47;101606.69;;;19.88;100.00
75359;BME280;64046;51.978;5.934;2023-05-07T07:19:25;101615.41;;;19.90;100.00
75359;BME280;64046;51.978;5.934;2023-05-07T07:22:00;101610.19;;;19.88;100.00
75359;BME280;64046;51.978;5.934;2023-05-07T07:24:32;101621.03;;;19.73;100.00
75359;BME280;64046;51.978;5.934;2023-05-07T07:27:07;101613.50;;;19.92;100.00
75359;BME280;64046;51.978;5.934;2023-05-07T07:29:37;101608.28;;;20.03;100.00
75359;BME280;64046;51.978;5.934;2023-05-07T07:32:13;101612.84;;;20.01;100.00
75359;BME280;64046;51.978;5.934;2023-05-07T07:34:48;101606.19;;;20.20;100.00
75359;BME280;64046;51.978;5.934;2023-05-07T07:37:27;101610.31;;;20.24;100.00
75359;BME280;64046;51.978;5.934;2023-05-07T07:39:59;101613.13;;;20.10;100.00
75359;BME280;64046;51.978;5.934;2023-05-07T07:42:34;101621.91;;;19.99;100.00
75359;BME280;64046;51.978;5.934;2023-05-07T07:45:08;101611.84;;;20.15;100.00
75359;BME280;64046;51.978;5.934;2023-05-07T07:47:42;101607.50;;;20.01;100.00
75359;BME280;64046;51.978;5.934;2023-05-07T07:50:16;101620.13;;;20.23;100.00
75359;BME280;64046;51.978;5.934;2023-05-07T07:52:56;101618.59;;;20.32;100.00
75359;BME280;64046;51.978;5.934;2023-05-07T07:55:28;101619.19;;;20.25;100.00
75359;BME280;64046;51.978;5.934;2023-05-07T07:57:59;101624.88;;;20.31;100.00
75359;BME280;64046;51.978;5.934;2023-05-07T08:00:36;101610.41;;;20.60;100.00
75359;BME280;64046;51.978;5.934;2023-05-07T08:03:12;101612.53;;;20.54;100.00
75359;BME280;64046;51.978;5.934;2023-05-07T08:05:59;101627.53;;;20.68;100.00
75359;BME280;64046;51.978;5.934;2023-05-07T08:11:44;101626.25;;;20.61;100.00
75359;BME280;64046;51.978;5.934;2023-05-07T08:14:22;101621.56;;;20.65;100.00
75359;BME280;64046;51.978;5.934;2023-05-07T08:17:00;101624.59;;;20.47;100.00
75359;BME280;64046;51.978;5.934;2023-05-07T08:19:32;101622.34;;;20.54;100.00
75359;BME280;64046;51.978;5.934;2023-05-07T08:22:08;101611.03;;;20.63;100.00
75359;BME280;64046;51.978;5.934;2023-05-07T08:24:39;101631.41;;;20.51;100.00
75359;BME280;64046;51.978;5.934;2023-05-07T08:27:13;101624.56;;;20.60;100.00
75359;BME280;64046;51.978;5.934;2023-05-07T08:29:44;101620.38;;;20.45;100.00
75359;BME280;64046;51.978;5.934;2023-05-07T08:32:16;101626.09;;;20.51;100.00
75359;BME280;64046;51.978;5.934;2023-05-07T08:35:05;101620.84;;;20.87;100.00
75359;BME280;64046;51.978;5.934;2023-05-07T08:37:37;101619.03;;;20.63;100.00
75359;BME280;64046;51.978;5.934;2023-05-07T08:40:52;101627.41;;;20.94;100.00
75359;BME280;64046;51.978;5.934;2023-05-07T08:46:57;101629.72;;;20.99;100.00
75359;BME280;64046;51.978;5.934;2023-05-07T08:49:35;101633.25;;;20.99;100.00
75359;BME280;64046;51.978;5.934;2023-05-07T08:52:13;101629.81;;;20.97;100.00
75359;BME280;64046;51.978;5.934;2023-05-07T08:54:47;101638.53;;;20.88;100.00
75359;BME280;64046;51.978;5.934;2023-05-07T08:57:34;101628.44;;;20.80;100.00
75359;BME280;64046;51.978;5.934;2023-05-07T09:00:18;101630.13;;;21.17;100.00
75359;BME280;64046;51.978;5.934;2023-05-07T09:02:54;101636.31;;;21.17;100.00
75359;BME280;64046;51.978;5.934;2023-05-07T09:08:16;101639.47;;;21.22;100.00
75359;BME280;64046;51.978;5.934;2023-05-07T09:10:51;101638.75;;;21.32;100.00
75359;BME280;64046;51.978;5.934;2023-05-07T09:13:25;101636.47;;;21.38;100.00
75359;BME280;64046;51.978;5.934;2023-05-07T09:16:10;101633.75;;;21.63;100.00
75359;BME280;64046;51.978;5.934;2023-05-07T09:18:51;101636.19;;;21.66;99.87
75359;BME280;64046;51.978;5.934;2023-05-07T09:21:34;101639.34;;;21.59;100.00
75359;BME280;64046;51.978;5.934;2023-05-07T09:24:11;101632.91;;;21.85;99.80
75359;BME280;64046;51.978;5.934;2023-05-07T09:26:44;101639.81;;;21.87;98.45
75359;BME280;64046;51.978;5.934;2023-05-07T09:29:34;101635.53;;;22.19;95.93
75359;BME280;64046;51.978;5.934;2023-05-07T09:32:26;101627.53;;;22.19;95.22
75359;BME280;64046;51.978;5.934;2023-05-07T09:35:14;101630.34;;;22.17;95.42
75359;BME280;64046;51.978;5.934;2023-05-07T09:37:56;101635.06;;;22.13;96.43
75359;BME280;64046;51.978;5.934;2023-05-07T09:41:05;101631.78;;;22.44;93.35
75359;BME280;64046;51.978;5.934;2023-05-07T09:43:53;101627.25;;;22.44;94.63
75359;BME280;64046;51.978;5.934;2023-05-07T09:46:39;101626.41;;;22.55;93.07
75359;BME280;64046;51.978;5.934;2023-05-07T09:49:24;101635.81;;;22.59;93.23
75359;BME280;64046;51.978;5.934;2023-05-07T09:52:06;101632.88;;;22.74;92.62
75359;BME280;64046;51.978;5.934;2023-05-07T09:54:45;101633.72;;;22.74;92.25
75359;BME280;64046;51.978;5.934;2023-05-07T09:57:25;101630.22;;;22.74;92.03
75359;BME280;64046;51.978;5.934;2023-05-07T10:00:13;101641.47;;;23.10;88.72
75359;BME280;64046;51.978;5.934;2023-05-07T10:03:02;101639.00;;;23.18;89.08
75359;BME280;64046;51.978;5.934;2023-05-07T10:05:42;101638.78;;;23.10;89.92
75359;BME280;64046;51.978;5.934;2023-05-07T10:08:20;101645.50;;;23.25;89.39
75359;BME280;64046;51.978;5.934;2023-05-07T10:10:58;101641.16;;;23.24;87.04
75359;BME280;64046;51.978;5.934;2023-05-07T10:13:32;101645.78;;;23.22;87.07
75359;BME280;64046;51.978;5.934;2023-05-07T10:16:07;101640.28;;;23.24;86.94
75359;BME280;64046;51.978;5.934;2023-05-07T10:18:50;101641.22;;;23.34;86.74
75359;BME280;64046;51.978;5.934;2023-05-07T10:21:30;101649.41;;;23.42;86.48
75359;BME280;64046;51.978;5.934;2023-05-07T10:24:15;101642.22;;;23.64;85.13
75359;BME280;64046;51.978;5.934;2023-05-07T10:27:01;101641.44;;;23.73;84.22
75359;BME280;64046;51.978;5.934;2023-05-07T10:29:37;101643.13;;;23.74;83.52
75359;BME280;64046;51.978;5.934;2023-05-07T10:32:27;101649.97;;;23.88;82.51
75359;BME280;64046;51.978;5.934;2023-05-07T10:35:13;101649.16;;;23.97;81.02
75359;BME280;64046;51.978;5.934;2023-05-07T10:37:52;101639.50;;;23.85;81.15
75359;BME280;64046;51.978;5.934;2023-05-07T10:40:33;101643.41;;;24.02;80.89
75359;BME280;64046;51.978;5.934;2023-05-07T10:43:14;101637.19;;;24.01;81.62
75359;BME280;64046;51.978;5.934;2023-05-07T10:46:14;101638.38;;;24.28;76.51
75359;BME280;64046;51.978;5.934;2023-05-07T10:49:10;101629.47;;;24.18;76.56
75359;BME280;64046;51.978;5.934;2023-05-07T10:52:13;101632.00;;;24.10;77.03
75359;BME280;64046;51.978;5.934;2023-05-07T10:55:24;101635.94;;;24.06;76.90
75359;BME280;64046;51.978;5.934;2023-05-07T10:58:32;101640.16;;;24.08;77.62
75359;BME280;64046;51.978;5.934;2023-05-07T11:04:14;101633.28;;;24.06;77.80
75359;BME280;64046;51.978;5.934;2023-05-07T11:07:28;101637.69;;;24.26;76.62
75359;BME280;64046;51.978;5.934;2023-05-07T11:10:08;101637.75;;;24.05;77.52
75359;BME280;64046;51.978;5.934;2023-05-07T11:12:59;101632.03;;;24.19;76.03
75359;BME280;64046;51.978;5.934;2023-05-07T11:15:46;101626.25;;;24.24;75.23
75359;BME280;64046;51.978;5.934;2023-05-07T11:18:24;101635.84;;;24.27;75.70
75359;BME280;64046;51.978;5.934;2023-05-07T11:21:12;101624.44;;;24.44;73.99
75359;BME280;64046;51.978;5.934;2023-05-07T11:23:56;101623.75;;;24.52;73.12
75359;BME280;64046;51.978;5.934;2023-05-07T11:26:48;101625.88;;;24.58;72.60
75359;BME280;64046;51.978;5.934;2023-05-07T11:29:23;101620.50;;;24.29;73.25
75359;BME280;64046;51.978;5.934;2023-05-07T11:32:24;101629.53;;;24.47;73.33
75359;BME280;64046;51.978;5.934;2023-05-07T11:34:55;101627.81;;;24.36;73.76
75359;BME280;64046;51.978;5.934;2023-05-07T11:37:28;101634.19;;;24.55;73.23
75359;BME280;64046;51.978;5.934;2023-05-07T11:40:03;101628.00;;;24.55;72.75
75359;BME280;64046;51.978;5.934;2023-05-07T11:42:43;101639.97;;;24.50;72.66
75359;BME280;64046;51.978;5.934;2023-05-07T11:45:23;101634.94;;;24.77;71.56
75359;BME280;64046;51.978;5.934;2023-05-07T11:48:02;101632.25;;;24.77;71.96
75359;BME280;64046;51.978;5.934;2023-05-07T11:50:50;101635.78;;;24.97;69.66
75359;BME280;64046;51.978;5.934;2023-05-07T11:53:20;101633.22;;;24.76;70.80
75359;BME280;64046;51.978;5.934;2023-05-07T11:55:54;101631.25;;;24.97;69.81
75359;BME280;64046;51.978;5.934;2023-05-07T11:58:31;101636.34;;;24.91;69.38
75359;BME280;64046;51.978;5.934;2023-05-07T12:01:09;101628.41;;;25.09;68.68
75359;BME280;64046;51.978;5.934;2023-05-07T12:03:49;101629.28;;;25.09;68.76
75359;BME280;64046;51.978;5.934;2023-05-07T12:06:21;101632.22;;;25.16;67.75
75359;BME280;64046;51.978;5.934;2023-05-07T12:08:56;101634.19;;;25.14;67.31
75359;BME280;64046;51.978;5.934;2023-05-07T12:11:29;101632.94;;;24.98;67.25
75359;BME280;64046;51.978;5.934;2023-05-07T12:14:01;101627.28;;;25.01;66.63
75359;BME280;64046;51.978;5.934;2023-05-07T12:16:34;101630.25;;;25.08;66.12
75359;BME280;64046;51.978;5.934;2023-05-07T12:19:09;101630.53;;;25.15;66.13
75359;BME280;64046;51.978;5.934;2023-05-07T12:21:39;101628.16;;;25.02;66.37
75359;BME280;64046;51.978;5.934;2023-05-07T12:24:09;101637.34;;;24.99;65.86
75359;BME280;64046;51.978;5.934;2023-05-07T12:26:53;101631.22;;;25.17;65.46
75359;BME280;64046;51.978;5.934;2023-05-07T12:29:24;101632.66;;;25.01;66.33
75359;BME280;64046;51.978;5.934;2023-05-07T12:31:57;101631.81;;;25.11;65.94
75359;BME280;64046;51.978;5.934;2023-05-07T12:34:40;101636.75;;;25.35;65.13
75359;BME280;64046;51.978;5.934;2023-05-07T12:37:14;101640.56;;;25.32;64.57
75359;BME280;64046;51.978;5.934;2023-05-07T12:40:09;101636.84;;;25.43;62.98
75359;BME280;64046;51.978;5.934;2023-05-07T12:42:42;101633.31;;;25.23;63.83
75359;BME280;64046;51.978;5.934;2023-05-07T12:45:17;101637.63;;;25.06;64.54
75359;BME280;64046;51.978;5.934;2023-05-07T12:47:54;101641.38;;;25.23;65.13
75359;BME280;64046;51.978;5.934;2023-05-07T12:53:29;101655.66;;;25.24;66.02
75359;BME280;64046;51.978;5.934;2023-05-07T12:56:02;101648.88;;;25.00;66.79
75359;BME280;64046;51.978;5.934;2023-05-07T12:58:35;101659.22;;;25.04;67.50
75359;BME280;64046;51.978;5.934;2023-05-07T13:01:06;101656.94;;;25.19;67.58
75359;BME280;64046;51.978;5.934;2023-05-07T13:03:41;101653.41;;;25.09;67.25
75359;BME280;64046;51.978;5.934;2023-05-07T13:06:17;101658.50;;;25.12;68.02
75359;BME280;64046;51.978;5.934;2023-05-07T13:08:49;101646.31;;;25.28;67.61
75359;BME280;64046;51.978;5.934;2023-05-07T13:11:21;101650.00;;;25.27;66.38
75359;BME280;64046;51.978;5.934;2023-05-07T13:13:52;101659.31;;;25.13;66.75
75359;BME280;64046;51.978;5.934;2023-05-07T13:16:23;101654.09;;;25.21;66.80
75359;BME280;64046;51.978;5.934;2023-05-07T13:18:58;101652.84;;;25.35;65.96
75359;BME280;64046;51.978;5.934;2023-05-07T13:21:27;101661.00;;;25.24;66.33
75359;BME280;64046;51.978;5.934;2023-05-07T13:24:04;101651.00;;;25.35;65.95
75359;BME280;64046;51.978;5.934;2023-05-07T13:26:34;101659.59;;;25.19;65.80
75359;BME280;64046;51.978;5.934;2023-05-07T13:29:04;101662.44;;;25.18;65.81
75359;BME280;64046;51.978;5.934;2023-05-07T13:31:37;101663.84;;;25.12;66.04
75359;BME280;64046;51.978;5.934;2023-05-07T13:34:09;101659.75;;;25.18;66.45
75359;BME280;64046;51.978;5.934;2023-05-07T13:36:38;101656.19;;;25.27;66.31
75359;BME280;64046;51.978;5.934;2023-05-07T13:42:57;101659.41;;;25.50;63.55
75359;BME280;64046;51.978;5.934;2023-05-07T13:45:29;101658.44;;;25.42;64.12
75359;BME280;64046;51.978;5.934;2023-05-07T13:48:02;101661.03;;;25.33;64.26
75359;BME280;64046;51.978;5.934;2023-05-07T13:50:45;101653.63;;;25.55;62.80
75359;BME280;64046;51.978;5.934;2023-05-07T13:53:21;101652.81;;;25.25;64.06
75359;BME280;64046;51.978;5.934;2023-05-07T13:56:06;101648.69;;;25.50;63.22